Time;durP1;ratioP1;P1;durP2;ratioP2;P2;SDS_P1;SDS_P2;PMS_P1;PMS_P2;Temp;Humidity;BMP_temperature;BMP_pressure;BME280_temperature;BME280_humidity;BME280_pressure;Samples;Min_cycle;Max_cycle;Signal;HPM_P1;HPM_P2
2023/06/05 00:00:28;;;;;;;;;;;25.20;53.80;;;;;;5088069;27;43184;-77
2023/06/05 00:02:53;;;;;;;;;;;25.20;53.80;;;;;;5087284;27;42974;-77
2023/06/05 00:05:19;;;;;;;;;;;25.20;53.40;;;;;;5094398;27;42992;-77
2023/06/05 00:07:45;;;;;;;;;;;25.30;53.90;;;;;;5093855;27;42906;-77
2023/06/05 00:10:11;;;;;;;;;;;25.20;53.90;;;;;;5087489;27;43075;-77
2023/06/05 00:12:37;;;;;;;;;;;25.20;53.90;;;;;;5094669;27;43359;-77
2023/06/05 00:15:03;;;;;;;;;;;25.20;53.90;;;;;;5095800;27;42881;-77
2023/06/05 00:17:30;;;;;;;;;;;25.20;53.90;;;;;;5087427;27;43757;-78
2023/06/05 00:19:58;;;;;;;;;;;25.20;53.90;;;;;;5094590;27;42910;-77
2023/06/05 00:22:25;;;;;;;;;;;25.20;53.90;;;;;;5086636;27;43030;-77
2023/06/05 00:24:50;;;;;;;;;;;25.20;54.00;;;;;;5095374;27;42997;-77
2023/06/05 00:27:16;;;;;;;;;;;25.20;54.00;;;;;;5101274;27;43769;-77
2023/06/05 00:29:41;;;;;;;;;;;25.10;53.50;;;;;;5101620;27;43046;-77
2023/06/05 00:32:07;;;;;;;;;;;25.20;54.00;;;;;;5107525;27;43401;-77
2023/06/05 00:34:32;;;;;;;;;;;25.20;54.10;;;;;;5107589;27;43565;-77
2023/06/05 00:36:58;;;;;;;;;;;25.20;53.60;;;;;;5086690;27;43049;-77
2023/06/05 00:39:24;;;;;;;;;;;25.20;54.60;;;;;;5087894;27;42898;-77
2023/06/05 00:41:49;;;;;;;;;;;25.20;53.60;;;;;;5090406;27;43697;-77
2023/06/05 00:44:16;;;;;;;;;;;25.20;54.10;;;;;;5105978;27;42992;-77
2023/06/05 00:46:42;;;;;;;;;;;25.20;54.10;;;;;;5090023;27;42985;-76
2023/06/05 00:49:08;;;;;;;;;;;25.20;54.10;;;;;;5086010;27;42950;-77
2023/06/05 00:51:34;;;;;;;;;;;25.20;54.10;;;;;;5102713;27;42974;-77
2023/06/05 00:54:00;;;;;;;;;;;25.20;53.60;;;;;;5103938;27;42980;-77
2023/06/05 00:56:25;;;;;;;;;;;25.20;54.10;;;;;;5088486;27;43625;-76
2023/06/05 00:58:52;;;;;;;;;;;25.20;54.20;;;;;;5089026;27;43138;-77
2023/06/05 01:01:20;;;;;;;;;;;24.40;53.30;;;;;;5088853;27;42969;-77
2023/06/05 01:03:47;;;;;;;;;;;25.20;54.20;;;;;;5086896;27;42939;-77
2023/06/05 01:06:13;;;;;;;;;;;25.10;54.10;;;;;;5104123;27;42971;-77
2023/06/05 01:08:39;;;;;;;;;;;25.20;54.20;;;;;;5103580;27;42991;-77
2023/06/05 01:11:28;;;;;;;;;;;25.20;54.20;;;;;;5097098;27;43572;-78
2023/06/05 01:14:00;;;;;;;;;;;25.20;54.10;;;;;;5082794;27;43032;-77
2023/06/05 01:16:30;;;;;;;;;;;25.20;54.10;;;;;;5086041;27;42919;-77
2023/06/05 01:19:02;;;;;;;;;;;25.20;54.10;;;;;;5087718;27;43908;-78
2023/06/05 01:21:32;;;;;;;;;;;25.20;54.10;;;;;;5096507;27;43433;-77
2023/06/05 01:24:01;;;;;;;;;;;25.20;54.10;;;;;;5089641;27;42713;-77
2023/06/05 01:26:30;;;;;;;;;;;25.20;54.10;;;;;;5102243;27;43476;-77
2023/06/05 01:28:57;;;;;;;;;;;25.20;54.10;;;;;;5092357;27;42960;-77
2023/06/05 01:31:22;;;;;;;;;;;25.20;54.10;;;;;;5097830;27;43126;-77
2023/06/05 01:33:56;;;;;;;;;;;25.20;54.10;;;;;;5090507;27;43253;-78
2023/06/05 01:36:22;;;;;;;;;;;25.20;54.00;;;;;;5103312;27;42872;-78
2023/06/05 01:38:49;;;;;;;;;;;25.20;54.50;;;;;;5084409;27;43154;-77
2023/06/05 01:41:17;;;;;;;;;;;25.20;54.00;;;;;;5083913;27;43180;-77
2023/06/05 01:43:45;;;;;;;;;;;25.10;53.50;;;;;;5084314;27;43272;-77
2023/06/05 01:46:10;;;;;;;;;;;25.20;54.00;;;;;;5086751;27;43187;-77
2023/06/05 01:48:38;;;;;;;;;;;25.20;54.50;;;;;;5078468;28;43133;-77
2023/06/05 01:51:04;;;;;;;;;;;25.20;53.50;;;;;;5081123;27;43717;-78
2023/06/05 01:53:30;;;;;;;;;;;25.10;53.40;;;;;;5086507;27;42926;-77
2023/06/05 01:55:59;;;;;;;;;;;28.20;55.40;;;;;;5097648;27;43678;-77
2023/06/05 01:58:26;;;;;;;;;;;25.10;53.80;;;;;;5086783;27;42893;-77
2023/06/05 02:00:52;;;;;;;;;;;25.10;53.40;;;;;;5085887;27;43722;-77
2023/06/05 02:03:18;;;;;;;;;;;25.10;53.30;;;;;;5086804;27;42871;-77
2023/06/05 02:05:44;;;;;;;;;;;25.10;53.80;;;;;;5086955;27;42992;-77
2023/06/05 02:08:10;;;;;;;;;;;25.20;53.90;;;;;;5094694;27;42957;-77
2023/06/05 02:10:43;;;;;;;;;;;25.10;53.30;;;;;;5102077;27;42969;-78
2023/06/05 02:13:10;;;;;;;;;;;25.10;53.70;;;;;;5094809;27;42975;-77
2023/06/05 02:15:35;;;;;;;;;;;25.10;53.30;;;;;;5084598;27;42954;-77
2023/06/05 02:18:02;;;;;;;;;;;25.10;53.80;;;;;;5089113;27;42940;-77
2023/06/05 02:20:28;;;;;;;;;;;25.10;53.80;;;;;;5100501;27;43184;-77
2023/06/05 02:22:54;;;;;;;;;;;25.10;53.80;;;;;;5099053;27;43021;-77
2023/06/05 02:25:20;;;;;;;;;;;25.10;53.80;;;;;;5105617;27;43558;-78
2023/06/05 02:27:46;;;;;;;;;;;25.10;53.80;;;;;;5095915;27;43147;-78
2023/06/05 02:30:12;;;;;;;;;;;25.10;53.80;;;;;;5090698;27;43493;-77
2023/06/05 02:32:43;;;;;;;;;;;25.10;53.80;;;;;;5085435;27;43236;-77
2023/06/05 02:35:09;;;;;;;;;;;25.10;53.80;;;;;;5097287;27;43910;-77
2023/06/05 02:37:37;;;;;;;;;;;25.10;53.80;;;;;;5100769;27;42933;-77
2023/06/05 02:40:07;;;;;;;;;;;25.10;53.90;;;;;;5089291;27;43559;-77
2023/06/05 02:42:33;;;;;;;;;;;25.10;53.80;;;;;;5096373;27;42976;-76
2023/06/05 02:44:59;;;;;;;;;;;25.10;53.40;;;;;;5089849;27;43591;-78
2023/06/05 02:47:25;;;;;;;;;;;25.10;53.90;;;;;;5092849;27;42879;-79
2023/06/05 02:49:50;;;;;;;;;;;25.10;53.90;;;;;;5097714;27;43379;-82
2023/06/05 02:52:16;;;;;;;;;;;25.10;53.90;;;;;;5090514;27;42882;-83
2023/06/05 02:54:41;;;;;;;;;;;25.00;53.40;;;;;;5083459;27;43121;-83
2023/06/05 02:57:07;;;;;;;;;;;25.10;53.90;;;;;;5083076;27;42930;-82
2023/06/05 02:59:39;;;;;;;;;;;25.10;54.00;;;;;;5073004;28;43682;-80
2023/06/05 03:02:08;;;;;;;;;;;25.00;53.40;;;;;;5084127;27;42948;-80
2023/06/05 03:04:33;;;;;;;;;;;25.10;53.90;;;;;;5091182;27;43574;-83
2023/06/05 03:07:03;;;;;;;;;;;25.00;53.50;;;;;;5091908;27;43009;-84
2023/06/05 03:09:30;;;;;;;;;;;25.10;54.00;;;;;;5085414;27;43007;-79
2023/06/05 03:11:55;;;;;;;;;;;25.10;54.00;;;;;;5093859;27;43012;-84
2023/06/05 03:14:21;;;;;;;;;;;25.10;54.00;;;;;;5092959;27;42961;-80
2023/06/05 03:16:46;;;;;;;;;;;25.00;53.90;;;;;;5092738;27;43084;-84
2023/06/05 03:19:12;;;;;;;;;;;25.00;54.00;;;;;;5088712;27;42937;-80
2023/06/05 03:21:39;;;;;;;;;;;25.00;53.50;;;;;;5089152;27;43193;-79
2023/06/05 03:24:06;;;;;;;;;;;25.00;54.00;;;;;;5089709;27;43024;-82
2023/06/05 03:26:32;;;;;;;;;;;25.00;54.00;;;;;;5091509;27;43317;-80
2023/06/05 03:28:58;;;;;;;;;;;25.00;54.00;;;;;;5098876;27;43057;-81
2023/06/05 03:31:23;;;;;;;;;;;25.00;54.00;;;;;;5092508;27;43029;-81
2023/06/05 03:33:49;;;;;;;;;;;25.00;53.50;;;;;;5096666;27;42874;-84
2023/06/05 03:36:17;;;;;;;;;;;25.00;54.00;;;;;;5107145;27;42954;-81
2023/06/05 03:38:43;;;;;;;;;;;25.00;53.50;;;;;;5095425;27;43643;-83
2023/06/05 03:41:09;;;;;;;;;;;25.10;54.00;;;;;;5095333;27;43029;-79
2023/06/05 03:43:34;;;;;;;;;;;25.00;53.60;;;;;;5092701;27;43194;-83
2023/06/05 03:46:00;;;;;;;;;;;25.00;54.10;;;;;;5087073;27;43124;-81
2023/06/05 03:48:26;;;;;;;;;;;25.00;53.60;;;;;;5104898;27;43094;-80
2023/06/05 03:50:53;;;;;;;;;;;25.00;54.10;;;;;;5090859;27;43153;-80
2023/06/05 03:53:18;;;;;;;;;;;25.00;53.60;;;;;;5097201;27;42981;-75
2023/06/05 03:55:45;;;;;;;;;;;25.00;54.10;;;;;;5098122;27;43108;-74
2023/06/05 03:58:15;;;;;;;;;;;25.00;54.00;;;;;;5098323;27;42986;-75
2023/06/05 04:00:42;;;;;;;;;;;25.00;54.10;;;;;;5072709;28;43313;-78
2023/06/05 04:03:11;;;;;;;;;;;25.00;53.60;;;;;;5092903;27;43846;-75
2023/06/05 04:05:38;;;;;;;;;;;25.00;54.10;;;;;;5094399;27;43019;-79
2023/06/05 04:08:04;;;;;;;;;;;25.00;54.10;;;;;;5100291;27;43029;-75
2023/06/05 04:10:29;;;;;;;;;;;25.00;54.10;;;;;;5102353;27;43202;-76
2023/06/05 04:12:55;;;;;;;;;;;25.00;54.20;;;;;;5090405;27;43485;-77
2023/06/05 04:15:21;;;;;;;;;;;24.90;53.60;;;;;;5094622;27;43173;-77
2023/06/05 04:17:47;;;;;;;;;;;24.90;53.60;;;;;;5088632;27;42981;-75
2023/06/05 04:20:15;;;;;;;;;;;25.00;54.10;;;;;;5095948;27;42950;-76
2023/06/05 04:22:41;;;;;;;;;;;25.00;54.10;;;;;;5101873;27;42927;-79
2023/06/05 04:25:08;;;;;;;;;;;25.00;54.10;;;;;;5096883;27;42941;-76
2023/06/05 04:27:33;;;;;;;;;;;25.00;54.10;;;;;;5106624;27;42887;-75
2023/06/05 04:29:59;;;;;;;;;;;25.00;54.60;;;;;;5089592;27;43014;-80
2023/06/05 04:32:25;;;;;;;;;;;25.00;54.10;;;;;;5091479;27;42985;-77
2023/06/05 04:34:53;;;;;;;;;;;24.90;53.70;;;;;;5099613;27;42977;-81
2023/06/05 04:37:19;;;;;;;;;;;23.40;53.30;;;;;;5092850;27;44175;-77
2023/06/05 04:39:44;;;;;;;;;;;24.90;53.60;;;;;;5097740;27;42945;-83
2023/06/05 04:42:10;;;;;;;;;;;24.90;53.60;;;;;;5086568;27;44537;-80
2023/06/05 04:44:37;;;;;;;;;;;25.00;54.20;;;;;;5088536;27;43063;-83
2023/06/05 04:47:06;;;;;;;;;;;25.00;54.10;;;;;;5092261;27;43044;-81
2023/06/05 04:49:31;;;;;;;;;;;25.00;54.10;;;;;;5094196;27;43036;-79
2023/06/05 04:51:59;;;;;;;;;;;25.00;54.10;;;;;;5092175;27;43374;-75
2023/06/05 04:54:25;;;;;;;;;;;25.00;54.20;;;;;;5096285;27;42953;-83
2023/06/05 04:56:50;;;;;;;;;;;25.00;54.20;;;;;;5099946;27;43297;-81
2023/06/05 04:59:16;;;;;;;;;;;24.90;54.20;;;;;;5098700;27;42914;-79
2023/06/05 05:01:41;;;;;;;;;;;25.00;53.70;;;;;;5099027;27;43008;-78
2023/06/05 05:04:07;;;;;;;;;;;25.00;54.20;;;;;;5090286;27;42814;-75
2023/06/05 05:06:33;;;;;;;;;;;25.00;53.80;;;;;;5095132;27;43605;-75
2023/06/05 05:08:59;;;;;;;;;;;25.00;54.20;;;;;;5102910;27;42929;-78
2023/06/05 05:11:26;;;;;;;;;;;24.90;53.80;;;;;;5085875;27;44369;-76
2023/06/05 05:13:51;;;;;;;;;;;24.90;53.80;;;;;;5097864;27;42855;-76
2023/06/05 05:16:17;;;;;;;;;;;24.90;53.90;;;;;;5072433;27;44097;-76
2023/06/05 05:18:43;;;;;;;;;;;25.00;53.90;;;;;;5094429;27;42964;-76
2023/06/05 05:21:08;;;;;;;;;;;25.00;53.90;;;;;;5090868;27;43457;-77
2023/06/05 05:23:34;;;;;;;;;;;24.90;54.30;;;;;;5093836;27;42914;-76
2023/06/05 05:26:01;;;;;;;;;;;24.90;53.90;;;;;;5086264;27;43010;-77
2023/06/05 05:28:27;;;;;;;;;;;24.90;53.90;;;;;;5101559;27;42981;-76
2023/06/05 05:30:52;;;;;;;;;;;24.90;54.40;;;;;;5106316;27;43162;-77
2023/06/05 05:33:18;;;;;;;;;;;25.00;54.90;;;;;;5089842;27;42926;-77
2023/06/05 05:35:44;;;;;;;;;;;24.90;53.90;;;;;;5085700;27;43703;-77
2023/06/05 05:38:10;;;;;;;;;;;24.90;53.90;;;;;;5086095;27;43191;-77
2023/06/05 05:40:35;;;;;;;;;;;24.90;54.40;;;;;;5086283;27;42995;-77
2023/06/05 05:43:01;;;;;;;;;;;25.00;54.50;;;;;;5086134;27;42887;-77
2023/06/05 05:45:26;;;;;;;;;;;24.90;53.90;;;;;;5086446;27;42883;-77
2023/06/05 05:47:52;;;;;;;;;;;24.90;54.40;;;;;;5085600;27;43137;-79
2023/06/05 05:50:18;;;;;;;;;;;25.00;54.50;;;;;;5084557;27;43497;-77
2023/06/05 05:52:44;;;;;;;;;;;24.90;53.90;;;;;;5082644;27;43134;-77
2023/06/05 05:55:10;;;;;;;;;;;25.00;54.40;;;;;;5105593;27;43818;-77
2023/06/05 05:57:35;;;;;;;;;;;24.90;53.90;;;;;;5101451;27;42826;-77
2023/06/05 06:00:01;;;;;;;;;;;24.90;54.40;;;;;;5086810;27;42929;-78
2023/06/05 06:02:27;;;;;;;;;;;24.90;54.00;;;;;;5081378;27;43020;-78
2023/06/05 06:04:53;;;;;;;;;;;24.90;54.00;;;;;;5105708;27;43736;-78
2023/06/05 06:07:18;;;;;;;;;;;24.90;54.50;;;;;;5091866;27;43086;-78
2023/06/05 06:09:44;;;;;;;;;;;24.90;54.40;;;;;;5096931;27;42977;-78
2023/06/05 06:12:10;;;;;;;;;;;24.90;54.40;;;;;;5098313;27;43167;-79
2023/06/05 06:14:36;;;;;;;;;;;24.90;54.50;;;;;;5085677;27;42964;-78
2023/06/05 06:17:02;;;;;;;;;;;24.90;54.00;;;;;;5087423;27;43047;-78
2023/06/05 06:19:28;;;;;;;;;;;24.90;54.50;;;;;;5104933;27;43792;-78
2023/06/05 06:21:54;;;;;;;;;;;24.90;54.50;;;;;;5101302;27;42957;-79
2023/06/05 06:24:21;;;;;;;;;;;24.90;54.00;;;;;;5093152;27;42959;-77
2023/06/05 06:26:47;;;;;;;;;;;24.90;54.50;;;;;;5101992;27;42899;-78
2023/06/05 06:29:18;;;;;;;;;;;24.90;54.50;;;;;;5105114;27;42856;-79
2023/06/05 06:31:44;;;;;;;;;;;24.90;54.50;;;;;;5088883;27;42940;-79
2023/06/05 06:34:10;;;;;;;;;;;24.90;54.60;;;;;;5093125;27;43110;-78
2023/06/05 06:36:43;;;;;;;;;;;24.90;54.60;;;;;;5091605;27;42925;-78
2023/06/05 06:39:12;;;;;;;;;;;24.90;54.60;;;;;;5104346;27;42886;-78
2023/06/05 06:41:41;;;;;;;;;;;24.90;54.60;;;;;;5088003;27;42938;-78
2023/06/05 06:44:06;;;;;;;;;;;24.90;54.20;;;;;;5096255;27;42945;-79
2023/06/05 06:46:32;;;;;;;;;;;24.90;54.20;;;;;;5072847;27;43164;-79
2023/06/05 06:48:57;;;;;;;;;;;24.90;54.20;;;;;;5104228;27;43011;-78
2023/06/05 06:51:23;;;;;;;;;;;24.90;54.70;;;;;;5098956;27;43015;-79
2023/06/05 06:53:49;;;;;;;;;;;24.90;54.70;;;;;;5084732;27;42831;-78
2023/06/05 06:56:15;;;;;;;;;;;24.90;54.70;;;;;;5085148;27;43010;-78
2023/06/05 06:58:42;;;;;;;;;;;24.90;54.30;;;;;;5095308;27;43025;-78
2023/06/05 07:01:08;;;;;;;;;;;24.90;54.70;;;;;;5100306;27;43105;-78
2023/06/05 07:03:34;;;;;;;;;;;24.90;54.70;;;;;;5077664;27;45315;-78
2023/06/05 07:06:00;;;;;;;;;;;27.60;56.10;;;;;;5087116;27;42982;-78
2023/06/05 07:08:25;;;;;;;;;;;24.80;54.30;;;;;;5084947;27;43744;-77
2023/06/05 07:10:54;;;;;;;;;;;24.90;54.80;;;;;;5097883;27;43017;-79
2023/06/05 07:22:30;;;;;;;;;;;24.90;54.80;;;;;;5083713;27;42882;-78
2023/06/05 07:24:55;;;;;;;;;;;24.90;54.80;;;;;;5098301;27;43060;-78
2023/06/05 07:27:21;;;;;;;;;;;24.90;54.80;;;;;;5104023;27;43042;-78
2023/06/05 07:29:47;;;;;;;;;;;24.80;54.80;;;;;;5091211;27;42952;-78
2023/06/05 07:32:13;;;;;;;;;;;24.90;54.80;;;;;;5085018;27;42890;-78
2023/06/05 07:34:38;;;;;;;;;;;24.80;54.30;;;;;;5097518;27;43028;-78
2023/06/05 07:37:04;;;;;;;;;;;24.80;54.30;;;;;;5084327;27;43035;-79
2023/06/05 07:39:30;;;;;;;;;;;24.80;54.30;;;;;;5084004;27;44124;-79
2023/06/05 07:41:55;;;;;;;;;;;24.80;54.70;;;;;;5084439;27;42947;-79
2023/06/05 07:44:21;;;;;;;;;;;24.90;54.80;;;;;;5084082;27;43418;-78
2023/06/05 07:46:47;;;;;;;;;;;24.80;54.70;;;;;;5084392;27;43209;-78
2023/06/05 07:49:14;;;;;;;;;;;24.80;54.70;;;;;;5084259;27;43696;-78
2023/06/05 07:51:39;;;;;;;;;;;24.90;54.80;;;;;;5090201;27;42898;-78
2023/06/05 07:54:05;;;;;;;;;;;24.80;54.30;;;;;;5103989;27;43948;-78
2023/06/05 07:56:32;;;;;;;;;;;24.90;54.90;;;;;;5090553;27;42973;-77
2023/06/05 07:58:57;;;;;;;;;;;24.90;54.90;;;;;;5103146;27;43036;-79
2023/06/05 08:01:23;;;;;;;;;;;24.80;54.80;;;;;;5089910;27;42954;-78
2023/06/05 08:03:49;;;;;;;;;;;24.80;54.40;;;;;;5103376;27;42963;-78
2023/06/05 08:06:15;;;;;;;;;;;;;;;;;;5083692;27;43069;-78
2023/06/05 08:08:41;;;;;;;;;;;24.80;54.30;;;;;;5097054;27;42843;-78
2023/06/05 08:11:06;;;;;;;;;;;24.80;54.40;;;;;;5084717;27;42839;-77
2023/06/05 08:13:32;;;;;;;;;;;24.80;54.40;;;;;;5096785;27;42822;-78
2023/06/05 08:15:57;;;;;;;;;;;24.70;54.40;;;;;;5088067;27;42910;-78
2023/06/05 08:18:23;;;;;;;;;;;24.80;55.00;;;;;;5087868;27;42851;-78
2023/06/05 08:20:48;;;;;;;;;;;24.80;55.00;;;;;;5087306;27;42989;-78
2023/06/05 08:23:14;;;;;;;;;;;24.80;55.00;;;;;;5086512;27;43009;-77
2023/06/05 08:25:41;;;;;;;;;;;24.80;55.00;;;;;;5087389;27;42858;-78
2023/06/05 08:28:07;;;;;;;;;;;24.80;54.60;;;;;;5080816;27;44778;-77
2023/06/05 08:30:32;;;;;;;;;;;24.80;55.10;;;;;;5087747;27;43960;-78
2023/06/05 08:32:58;;;;;;;;;;;24.80;54.50;;;;;;5087747;27;42986;-77
2023/06/05 08:35:23;;;;;;;;;;;24.70;54.60;;;;;;5087101;27;42954;-78
2023/06/05 08:37:49;;;;;;;;;;;24.80;55.10;;;;;;5087217;27;42758;-78
2023/06/05 08:40:15;;;;;;;;;;;24.80;55.10;;;;;;5087137;27;42968;-78
2023/06/05 08:42:40;;;;;;;;;;;24.70;55.00;;;;;;5086324;27;43721;-78
2023/06/05 08:45:07;;;;;;;;;;;24.70;54.60;;;;;;5086597;27;43078;-78
2023/06/05 08:47:35;;;;;;;;;;;24.80;55.10;;;;;;5098983;27;43960;-78
2023/06/05 08:50:02;;;;;;;;;;;24.70;55.00;;;;;;5100691;27;43029;-78
2023/06/05 08:52:29;;;;;;;;;;;24.70;55.00;;;;;;5086402;27;42938;-79
2023/06/05 08:54:57;;;;;;;;;;;24.70;55.00;;;;;;5106569;27;42799;-78
2023/06/05 08:57:22;;;;;;;;;;;24.70;55.00;;;;;;5093555;27;44075;-78
2023/06/05 08:59:51;;;;;;;;;;;24.70;54.60;;;;;;5100488;27;43236;-77
2023/06/05 09:02:17;;;;;;;;;;;24.70;54.60;;;;;;5086232;27;42998;-78
2023/06/05 09:04:43;;;;;;;;;;;24.70;55.00;;;;;;5086610;27;42901;-78
2023/06/05 09:07:08;;;;;;;;;;;24.80;55.10;;;;;;5086075;27;43549;-76
2023/06/05 09:09:34;;;;;;;;;;;24.70;54.60;;;;;;5093216;27;42972;-77
2023/06/05 09:12:01;;;;;;;;;;;24.80;55.10;;;;;;5091367;27;42972;-77
2023/06/05 09:14:27;;;;;;;;;;;24.80;55.00;;;;;;5093833;27;42990;-77
2023/06/05 09:16:52;;;;;;;;;;;24.70;55.00;;;;;;5073819;27;44297;-77
2023/06/05 09:19:24;;;;;;;;;;;24.70;55.00;;;;;;5086277;27;42866;-78
2023/06/05 09:21:54;;;;;;;;;;;24.80;55.00;;;;;;5087506;27;43012;-77
2023/06/05 09:24:21;;;;;;;;;;;24.80;55.00;;;;;;5106309;27;43207;-78
2023/06/05 09:27:08;;;;;;;;;;;24.70;54.50;;;;;;5090487;27;43571;-77
2023/06/05 09:29:36;;;;;;;;;;;24.70;54.60;;;;;;5106129;27;44009;-77
2023/06/05 09:32:02;;;;;;;;;;;24.80;55.00;;;;;;5101996;27;43322;-79
2023/06/05 09:34:32;;;;;;;;;;;24.80;55.00;;;;;;5086198;27;42906;-77
2023/06/05 09:37:00;;;;;;;;;;;24.80;55.10;;;;;;5086001;27;43961;-77
2023/06/05 09:39:27;;;;;;;;;;;24.70;55.10;;;;;;5098211;27;42906;-77
2023/06/05 09:41:54;;;;;;;;;;;24.80;55.10;;;;;;5086047;27;43002;-77
2023/06/05 09:44:20;;;;;;;;;;;24.80;54.70;;;;;;5084962;27;42925;-77
2023/06/05 09:46:56;;;;;;;;;;;24.80;54.70;;;;;;5090932;27;44285;-78
2023/06/05 09:49:25;;;;;;;;;;;24.80;55.20;;;;;;5104621;27;42960;-77
2023/06/05 09:51:51;;;;;;;;;;;24.80;55.10;;;;;;5105782;27;43775;-78
2023/06/05 09:54:17;;;;;;;;;;;24.80;55.10;;;;;;5091392;27;43056;-78
2023/06/05 09:56:49;;;;;;;;;;;24.70;54.60;;;;;;5079664;28;44415;-78
2023/06/05 09:59:21;;;;;;;;;;;24.80;55.10;;;;;;5075483;27;43086;-76
2023/06/05 10:01:48;;;;;;;;;;;24.80;54.60;;;;;;5097303;27;43591;-78
2023/06/05 10:04:16;;;;;;;;;;;24.70;54.50;;;;;;5095678;27;43195;-77
2023/06/05 10:06:42;;;;;;;;;;;24.80;55.00;;;;;;5104243;27;43676;-78
2023/06/05 10:09:09;;;;;;;;;;;24.80;54.50;;;;;;5092037;27;42935;-77
2023/06/05 10:11:35;;;;;;;;;;;24.70;55.00;;;;;;5087040;27;42972;-78
2023/06/05 10:14:00;;;;;;;;;;;24.80;55.00;;;;;;5094573;27;42986;-78
2023/06/05 10:16:28;;;;;;;;;;;24.70;54.40;;;;;;5101092;27;42953;-78
2023/06/05 10:18:56;;;;;;;;;;;24.80;54.90;;;;;;5100800;27;42920;-77
2023/06/05 10:21:22;;;;;;;;;;;24.80;54.80;;;;;;5101994;27;43000;-78
2023/06/05 10:23:48;;;;;;;;;;;24.80;54.80;;;;;;5100469;27;43044;-77
2023/06/05 10:26:34;;;;;;;;;;;24.80;54.80;;;;;;5076735;27;44853;-76
2023/06/05 10:29:00;;;;;;;;;;;24.70;54.20;;;;;;5032609;27;43465;-76
2023/06/05 10:31:41;;;;;;;;;;;24.80;54.70;;;;;;5084040;27;43979;-76
2023/06/05 10:34:27;;;;;;;;;;;24.70;54.60;;;;;;5092335;27;42982;-76
2023/06/05 10:36:58;;;;;;;;;;;24.70;55.10;;;;;;5092081;27;43597;-76
2023/06/05 10:39:25;;;;;;;;;;;24.70;54.10;;;;;;5104733;27;42897;-76
2023/06/05 10:41:51;;;;;;;;;;;24.70;54.50;;;;;;5101179;27;43221;-77
2023/06/05 10:44:16;;;;;;;;;;;24.70;54.50;;;;;;5101761;27;42972;-76
2023/06/05 10:46:42;;;;;;;;;;;24.80;54.50;;;;;;5101406;27;43530;-77
2023/06/05 10:49:19;;;;;;;;;;;24.70;54.50;;;;;;5093562;27;42968;-76
2023/06/05 10:51:49;;;;;;;;;;;24.70;54.50;;;;;;5082334;27;44510;-77
2023/06/05 10:54:35;;;;;;;;;;;24.80;54.50;;;;;;5102427;27;42962;-76
2023/06/05 10:57:05;;;;;;;;;;;24.80;54.60;;;;;;5092577;27;42796;-76
2023/06/05 10:59:32;;;;;;;;;;;24.80;54.20;;;;;;5093501;27;42943;-77
2023/06/05 11:02:14;;;;;;;;;;;24.80;54.70;;;;;;5104458;27;43841;-76
2023/06/05 11:04:48;;;;;;;;;;;24.80;54.60;;;;;;5104179;27;43296;-77
2023/06/05 11:07:24;;;;;;;;;;;24.80;54.60;;;;;;5103163;27;42964;-76
2023/06/05 11:10:05;;;;;;;;;;;24.80;54.60;;;;;;5098886;27;43026;-77
2023/06/05 11:12:42;;;;;;;;;;;24.70;54.50;;;;;;5104531;27;43006;-76
2023/06/05 11:15:15;;;;;;;;;;;24.80;54.60;;;;;;5086282;27;42962;-77
2023/06/05 11:17:44;;;;;;;;;;;24.80;54.10;;;;;;5087358;27;43795;-76
2023/06/05 11:20:26;;;;;;;;;;;24.80;54.60;;;;;;5089477;27;42973;-77
2023/06/05 11:22:52;;;;;;;;;;;24.80;55.00;;;;;;5096562;27;43139;-76
2023/06/05 11:25:18;;;;;;;;;;;24.80;54.50;;;;;;5088104;27;42934;-76
2023/06/05 11:27:45;;;;;;;;;;;24.80;54.10;;;;;;5082482;27;44081;-76
2023/06/05 11:30:20;;;;;;;;;;;24.80;54.50;;;;;;5089186;27;43175;-77
2023/06/05 11:32:46;;;;;;;;;;;24.80;54.40;;;;;;5093744;27;43004;-76
2023/06/05 11:35:12;;;;;;;;;;;24.80;54.00;;;;;;5084301;27;42883;-76
2023/06/05 11:37:39;;;;;;;;;;;24.80;54.40;;;;;;5083523;27;42947;-76
2023/06/05 11:40:08;;;;;;;;;;;24.80;53.90;;;;;;5082711;27;43058;-76
2023/06/05 11:42:34;;;;;;;;;;;24.80;54.30;;;;;;5084547;27;43984;-76
2023/06/05 11:44:59;;;;;;;;;;;24.80;54.30;;;;;;5089505;27;42933;-77
2023/06/05 11:47:26;;;;;;;;;;;24.80;54.30;;;;;;5096493;27;43720;-81
2023/06/05 11:49:52;;;;;;;;;;;24.80;54.80;;;;;;5093358;27;43084;-82
2023/06/05 11:52:22;;;;;;;;;;;24.80;54.50;;;;;;5099443;27;43575;-85
2023/06/05 11:55:05;;;;;;;;;;;24.80;54.30;;;;;;5098514;27;43020;-89
2023/06/05 11:57:43;;;;;;;;;;;24.80;54.90;;;;;;5079544;27;44600;-83
2023/06/05 12:00:11;;;;;;;;;;;24.70;55.30;;;;;;5096694;27;43016;-79
2023/06/05 12:02:37;;;;;;;;;;;24.70;54.60;;;;;;5098589;27;44034;-77
2023/06/05 12:05:05;;;;;;;;;;;24.70;54.70;;;;;;5102278;27;42885;-77
2023/06/05 12:07:36;;;;;;;;;;;24.60;55.10;;;;;;5098319;27;42992;-79
2023/06/05 12:10:03;;;;;;;;;;;24.50;56.10;;;;;;5100809;27;43682;-79
2023/06/05 12:12:28;;;;;;;;;;;24.50;55.60;;;;;;5096098;27;42928;-78
2023/06/05 12:14:55;;;;;;;;;;;24.50;55.50;;;;;;5098545;27;42945;-79
2023/06/05 12:17:22;;;;;;;;;;;24.50;56.10;;;;;;5098209;27;43447;-78
2023/06/05 12:19:53;;;;;;;;;;;24.60;55.90;;;;;;5099858;27;42973;-82
2023/06/05 12:22:19;;;;;;;;;;;24.60;55.60;;;;;;5099905;27;43027;-80
2023/06/05 12:24:45;;;;;;;;;;;24.50;54.80;;;;;;5099493;27;43265;-79
2023/06/05 12:27:11;;;;;;;;;;;24.50;54.80;;;;;;5093897;27;43619;-86
2023/06/05 12:29:40;;;;;;;;;;;24.50;54.90;;;;;;5092495;27;43080;-81
2023/06/05 12:32:25;;;;;;;;;;;24.50;54.90;;;;;;5100259;27;44039;-79
2023/06/05 12:34:51;;;;;;;;;;;24.50;55.70;;;;;;5097342;27;43040;-82
2023/06/05 12:37:31;;;;;;;;;;;24.60;55.90;;;;;;5096406;27;43448;-80
2023/06/05 12:39:58;;;;;;;;;;;24.60;55.50;;;;;;5098143;27;42992;-79
2023/06/05 12:42:24;;;;;;;;;;;24.60;55.40;;;;;;5098034;27;43674;-82
2023/06/05 12:44:50;;;;;;;;;;;24.60;55.60;;;;;;5099942;27;42921;-78
2023/06/05 12:47:15;;;;;;;;;;;24.60;55.60;;;;;;5099470;27;43472;-80
2023/06/05 12:49:41;;;;;;;;;;;24.60;55.80;;;;;;5100938;27;43309;-78
2023/06/05 12:52:08;;;;;;;;;;;24.50;56.10;;;;;;5096007;27;42970;-78
2023/06/05 12:54:35;;;;;;;;;;;24.50;56.50;;;;;;5096024;27;43118;-81
2023/06/05 12:57:01;;;;;;;;;;;24.60;56.10;;;;;;5096121;27;42896;-80
2023/06/05 12:59:26;;;;;;;;;;;24.60;56.40;;;;;;5097411;27;43011;-79
2023/06/05 13:01:52;;;;;;;;;;;24.50;56.40;;;;;;5097657;27;42979;-79
2023/06/05 13:04:17;;;;;;;;;;;24.50;56.70;;;;;;5097127;27;43127;-79
2023/06/05 13:06:43;;;;;;;;;;;24.60;56.50;;;;;;5095695;27;43820;-79
2023/06/05 13:09:09;;;;;;;;;;;24.50;56.60;;;;;;5097484;27;43014;-79
2023/06/05 13:11:35;;;;;;;;;;;24.50;56.80;;;;;;5096389;27;43423;-78
2023/06/05 13:14:00;;;;;;;;;;;24.50;56.60;;;;;;5095845;27;43040;-80
2023/06/05 13:16:26;;;;;;;;;;;24.50;56.40;;;;;;5096938;27;43698;-80
2023/06/05 13:18:52;;;;;;;;;;;24.60;57.40;;;;;;5097164;27;42965;-78
2023/06/05 13:21:17;;;;;;;;;;;24.60;57.00;;;;;;5095247;27;43372;-81
2023/06/05 13:23:43;;;;;;;;;;;24.50;57.10;;;;;;5092419;27;42913;-83
2023/06/05 13:26:08;;;;;;;;;;;24.30;56.60;;;;;;5096395;27;43880;-82
2023/06/05 13:28:34;;;;;;;;;;;24.40;56.90;;;;;;5093637;27;42780;-79
2023/06/05 13:31:01;;;;;;;;;;;24.50;57.10;;;;;;5097245;27;43318;-80
2023/06/05 13:33:27;;;;;;;;;;;24.50;57.20;;;;;;5095943;27;42985;-78
2023/06/05 13:35:53;;;;;;;;;;;24.50;58.00;;;;;;5097117;27;43424;-81
2023/06/05 13:38:20;;;;;;;;;;;24.50;58.50;;;;;;5096848;27;43016;-78
2023/06/05 13:40:48;;;;;;;;;;;24.50;58.70;;;;;;5095292;27;43010;-78
2023/06/05 13:43:15;;;;;;;;;;;24.40;58.00;;;;;;5100662;27;43147;-78
2023/06/05 13:45:41;;;;;;;;;;;24.60;58.20;;;;;;5105210;27;43326;-80
2023/06/05 13:48:06;;;;;;;;;;;24.40;58.30;;;;;;5095918;27;43020;-79
2023/06/05 13:50:32;;;;;;;;;;;24.40;58.30;;;;;;5083659;27;45210;-81
2023/06/05 13:52:57;;;;;;;;;;;24.50;58.40;;;;;;5096029;27;43056;-78
2023/06/05 13:55:23;;;;;;;;;;;24.50;58.70;;;;;;5096777;27;43677;-78
2023/06/05 13:57:48;;;;;;;;;;;24.50;59.10;;;;;;5094738;27;42990;-80
2023/06/05 14:00:15;;;;;;;;;;;24.60;58.90;;;;;;5095125;27;42962;-83
2023/06/05 14:02:41;;;;;;;;;;;24.60;59.30;;;;;;5098748;27;43016;-79
2023/06/05 14:05:07;;;;;;;;;;;24.50;58.80;;;;;;5098074;27;43063;-84
2023/06/05 14:07:33;;;;;;;;;;;24.50;58.50;;;;;;5098603;27;43073;-83
2023/06/05 14:09:59;;;;;;;;;;;24.50;59.30;;;;;;5093586;27;43925;-80
2023/06/05 14:12:25;;;;;;;;;;;24.40;58.80;;;;;;5092804;27;43145;-79
2023/06/05 14:14:50;;;;;;;;;;;24.40;59.40;;;;;;5095342;27;43286;-79
2023/06/05 14:17:16;;;;;;;;;;;24.40;58.80;;;;;;5094283;27;43028;-83
2023/06/05 14:19:42;;;;;;;;;;;24.50;58.90;;;;;;5077250;27;44410;-84
2023/06/05 14:22:08;;;;;;;;;;;24.50;58.50;;;;;;5074949;27;43105;-78
2023/06/05 14:24:34;;;;;;;;;;;24.50;57.90;;;;;;5076067;27;44527;-82
2023/06/05 14:26:59;;;;;;;;;;;24.50;58.40;;;;;;5096083;27;42893;-83